Pantelleria current weather conditions

sailwx.info

Wind from 300 at 4 knots

Air temperature 28.0° C
Dewpoint 20.0° C

Last reported at 2014-Jul-29 17:55 UTC.
Time now 2014-Jul-30 05:09 UTC

Location: N 36°49' E 011°58'.
View on Google Maps.

See reports from other nearby stations

  
Tides and Currents Weather Stations Pressure Air Temp Water Temp Dewpoint Dewpoint Depression Visibility Wind Speed Wind Dir Waves Ship Positions
date/time (UTC)wind fromknots sea level pressurealtimeterstation pressurevisibilityair tempwater tempwave heightnotes
2014-Jul-29 17:55 300 4 28.0
2014-Jul-29 16:55 180 16 32.0
2014-Jul-29 15:55 200 20 32.0
2014-Jul-29 14:55 180 19 32.0
2014-Jul-29 13:55 170 19 32.0
2014-Jul-29 12:55 180 17 31.0
2014-Jul-29 11:55 180 16 31.0
2014-Jul-29 10:55 190 16 31.0
2014-Jul-29 09:55 190 16 31.0
2014-Jul-29 08:55 180 13 29.0
2014-Jul-29 07:55 190 13 28.0
2014-Jul-29 06:55 190 11 26.0
2014-Jul-29 05:55 190 10 23.0
2014-Jul-29 04:55 180 8 20.0
2014-Jul-28 17:55 360 6 23.0
2014-Jul-28 16:55 340 7 24.0
2014-Jul-28 15:55 360 7 5.424.0
2014-Jul-28 14:55 350 9 25.0
2014-Jul-28 13:55 330 9 25.0
2014-Jul-28 12:55 330 9 26.0
2014-Jul-28 11:55 330 10 25.0
2014-Jul-28 10:55 310 11 25.0
2014-Jul-28 09:55 310 12 25.0
2014-Jul-28 08:55 320 12 5.425.0
2014-Jul-28 07:55 310 10 5.424.0
2014-Jul-28 06:55 310 10 5.423.0
2014-Jul-28 05:55 300 11 5.422.0